CheckWX is a tool to help pilots better visualize weather data.  It is not intended as a substitute for an official pre-flight weather briefing.

17:43:58 UTC

LTCL TAF
Siirt Airport
Siirt, Turkey
TAF LTCL 181340Z 1815/1824 19012KT 9999 SCT040 BECMG 1815/1818 VRB02KT CAVOK

Jun-18@
15:00 UTC

Jun-18 @ 15:00 UTC

Jun-19@
00:00 UTC

Jun-19 @ 00:00 UTC

TAF LTCL 181340Z 1815/1824 19012KT 9999 SCT040
Wind
  • 190° at 12 KTS
Cloud Levels
  • Scattered at 4,000' AGL

Jun-18@
15:00 UTC

Jun-18 @ 15:00 UTC

Jun-19@
00:00 UTC

Jun-19 @ 00:00 UTC

BECMG 1815/1818 VRB02KT CAVOK

Becoming

Becoming Conditions expected by Tue, Jun 18, 2019 @ 18:00 UTC

Wind
  • Variable at 2 KTS
Conditions
No significant weather
Cloud Levels
  • No significant clouds